sensor_id;sensor_type;location;lat;lon;timestamp;temperature;humidity
37300;DHT22;23184;51.902;12.836;2023-05-10T00:02:03;11.50;99.90
37300;DHT22;23184;51.902;12.836;2023-05-10T00:04:29;11.40;99.90
37300;DHT22;23184;51.902;12.836;2023-05-10T00:06:54;11.40;99.90
37300;DHT22;23184;51.902;12.836;2023-05-10T00:09:20;11.40;99.90
37300;DHT22;23184;51.902;12.836;2023-05-10T00:11:45;11.30;99.90
37300;DHT22;23184;51.902;12.836;2023-05-10T00:14:11;11.30;99.90
37300;DHT22;23184;51.902;12.836;2023-05-10T00:16:37;11.30;99.90
37300;DHT22;23184;51.902;12.836;2023-05-10T00:19:02;11.30;99.90
37300;DHT22;23184;51.902;12.836;2023-05-10T00:21:28;11.30;99.90
37300;DHT22;23184;51.902;12.836;2023-05-10T00:23:54;11.20;99.90
37300;DHT22;23184;51.902;12.836;2023-05-10T00:26:20;11.20;99.90
37300;DHT22;23184;51.902;12.836;2023-05-10T00:28:45;11.20;99.90
37300;DHT22;23184;51.902;12.836;2023-05-10T00:31:11;11.10;99.90
37300;DHT22;23184;51.902;12.836;2023-05-10T00:33:36;11.10;99.90
37300;DHT22;23184;51.902;12.836;2023-05-10T00:36:02;11.00;99.90
37300;DHT22;23184;51.902;12.836;2023-05-10T00:38:27;11.00;99.90
37300;DHT22;23184;51.902;12.836;2023-05-10T00:40:53;11.00;99.90
37300;DHT22;23184;51.902;12.836;2023-05-10T00:43:18;11.00;99.90
37300;DHT22;23184;51.902;12.836;2023-05-10T00:45:44;11.00;99.90
37300;DHT22;23184;51.902;12.836;2023-05-10T00:48:10;10.90;99.90
37300;DHT22;23184;51.902;12.836;2023-05-10T00:50:35;10.80;99.90
37300;DHT22;23184;51.902;12.836;2023-05-10T00:53:02;10.90;99.90
37300;DHT22;23184;51.902;12.836;2023-05-10T00:55:28;10.80;99.90
37300;DHT22;23184;51.902;12.836;2023-05-10T00:57:53;10.80;99.90
37300;DHT22;23184;51.902;12.836;2023-05-10T01:00:19;10.80;99.90
37300;DHT22;23184;51.902;12.836;2023-05-10T01:02:45;10.80;99.90
37300;DHT22;23184;51.902;12.836;2023-05-10T01:05:12;10.70;99.90
37300;DHT22;23184;51.902;12.836;2023-05-10T01:07:37;10.60;99.90
37300;DHT22;23184;51.902;12.836;2023-05-10T01:10:04;10.70;99.90
37300;DHT22;23184;51.902;12.836;2023-05-10T01:12:30;10.60;99.90
37300;DHT22;23184;51.902;12.836;2023-05-10T01:14:55;10.60;99.90
37300;DHT22;23184;51.902;12.836;2023-05-10T01:17:22;10.50;99.90
37300;DHT22;23184;51.902;12.836;2023-05-10T01:19:47;10.50;99.90
37300;DHT22;23184;51.902;12.836;2023-05-10T01:30:27;10.30;99.90
37300;DHT22;23184;51.902;12.836;2023-05-10T01:33:05;10.30;99.90
37300;DHT22;23184;51.902;12.836;2023-05-10T01:35:41;10.30;99.90
37300;DHT22;23184;51.902;12.836;2023-05-10T01:38:20;10.30;99.90
37300;DHT22;23184;51.902;12.836;2023-05-10T01:41:14;10.30;99.90
37300;DHT22;23184;51.902;12.836;2023-05-10T01:44:35;10.30;99.90
37300;DHT22;23184;51.902;12.836;2023-05-10T01:46:41;10.30;99.90
37300;DHT22;23184;51.902;12.836;2023-05-10T01:49:29;10.30;99.90
37300;DHT22;23184;51.902;12.836;2023-05-10T01:52:00;10.20;99.90
37300;DHT22;23184;51.902;12.836;2023-05-10T01:54:27;10.20;99.90
37300;DHT22;23184;51.902;12.836;2023-05-10T01:57:01;10.10;99.90
37300;DHT22;23184;51.902;12.836;2023-05-10T01:59:32;10.10;99.90
37300;DHT22;23184;51.902;12.836;2023-05-10T02:02:02;10.10;99.90
37300;DHT22;23184;51.902;12.836;2023-05-10T02:04:28;10.10;99.90
37300;DHT22;23184;51.902;12.836;2023-05-10T02:06:55;10.10;99.90
37300;DHT22;23184;51.902;12.836;2023-05-10T02:09:21;10.10;99.90
37300;DHT22;23184;51.902;12.836;2023-05-10T02:11:49;10.10;99.90
37300;DHT22;23184;51.902;12.836;2023-05-10T02:14:15;10.10;99.90
37300;DHT22;23184;51.902;12.836;2023-05-10T02:16:43;10.10;99.90
37300;DHT22;23184;51.902;12.836;2023-05-10T02:19:10;10.10;99.90
37300;DHT22;23184;51.902;12.836;2023-05-10T02:21:39;10.10;99.90
37300;DHT22;23184;51.902;12.836;2023-05-10T02:24:05;10.00;99.90
37300;DHT22;23184;51.902;12.836;2023-05-10T02:26:33;10.00;99.90
37300;DHT22;23184;51.902;12.836;2023-05-10T02:29:01;10.00;99.90
37300;DHT22;23184;51.902;12.836;2023-05-10T02:31:30;10.00;99.90
37300;DHT22;23184;51.902;12.836;2023-05-10T02:33:58;10.00;99.90
37300;DHT22;23184;51.902;12.836;2023-05-10T02:36:24;10.00;99.90
37300;DHT22;23184;51.902;12.836;2023-05-10T02:38:52;9.90;99.90
37300;DHT22;23184;51.902;12.836;2023-05-10T02:41:20;10.00;99.90
37300;DHT22;23184;51.902;12.836;2023-05-10T02:43:50;10.00;99.90
37300;DHT22;23184;51.902;12.836;2023-05-10T02:46:16;10.00;99.90
37300;DHT22;23184;51.902;12.836;2023-05-10T02:48:41;10.00;99.90
37300;DHT22;23184;51.902;12.836;2023-05-10T02:51:08;10.00;99.90
37300;DHT22;23184;51.902;12.836;2023-05-10T02:53:35;9.90;99.90
37300;DHT22;23184;51.902;12.836;2023-05-10T02:56:05;9.90;99.90
37300;DHT22;23184;51.902;12.836;2023-05-10T02:58:32;9.90;99.90
37300;DHT22;23184;51.902;12.836;2023-05-10T03:00:58;10.00;99.90
37300;DHT22;23184;51.902;12.836;2023-05-10T03:03:24;9.90;99.90
37300;DHT22;23184;51.902;12.836;2023-05-10T03:05:50;9.90;99.90
37300;DHT22;23184;51.902;12.836;2023-05-10T03:08:16;9.90;99.90
37300;DHT22;23184;51.902;12.836;2023-05-10T03:10:48;9.80;99.90
37300;DHT22;23184;51.902;12.836;2023-05-10T03:13:29;9.80;99.90
37300;DHT22;23184;51.902;12.836;2023-05-10T03:15:59;9.80;99.90
37300;DHT22;23184;51.902;12.836;2023-05-10T03:18:32;9.80;99.90
37300;DHT22;23184;51.902;12.836;2023-05-10T03:21:03;9.80;99.90
37300;DHT22;23184;51.902;12.836;2023-05-10T03:23:35;9.80;99.90
37300;DHT22;23184;51.902;12.836;2023-05-10T03:26:06;9.80;99.90
37300;DHT22;23184;51.902;12.836;2023-05-10T03:28:34;9.80;99.90
37300;DHT22;23184;51.902;12.836;2023-05-10T03:31:00;9.80;99.90
37300;DHT22;23184;51.902;12.836;2023-05-10T03:33:26;9.80;99.90
37300;DHT22;23184;51.902;12.836;2023-05-10T03:35:51;9.80;99.90
37300;DHT22;23184;51.902;12.836;2023-05-10T03:38:17;9.80;99.90
37300;DHT22;23184;51.902;12.836;2023-05-10T03:40:42;9.70;99.90
37300;DHT22;23184;51.902;12.836;2023-05-10T03:43:08;9.80;99.90
37300;DHT22;23184;51.902;12.836;2023-05-10T03:45:33;9.80;99.90
37300;DHT22;23184;51.902;12.836;2023-05-10T03:47:59;9.80;99.90
37300;DHT22;23184;51.902;12.836;2023-05-10T03:50:24;9.80;99.90
37300;DHT22;23184;51.902;12.836;2023-05-10T03:52:50;9.80;99.90
37300;DHT22;23184;51.902;12.836;2023-05-10T03:55:16;9.80;99.90
37300;DHT22;23184;51.902;12.836;2023-05-10T03:57:42;9.80;99.90
37300;DHT22;23184;51.902;12.836;2023-05-10T04:00:08;9.80;99.90
37300;DHT22;23184;51.902;12.836;2023-05-10T04:02:34;9.90;99.90
37300;DHT22;23184;51.902;12.836;2023-05-10T04:04:59;9.90;99.90
37300;DHT22;23184;51.902;12.836;2023-05-10T04:07:24;9.90;99.90
37300;DHT22;23184;51.902;12.836;2023-05-10T04:09:50;10.00;99.90
37300;DHT22;23184;51.902;12.836;2023-05-10T04:12:15;10.00;99.90
37300;DHT22;23184;51.902;12.836;2023-05-10T04:14:41;10.00;99.90
37300;DHT22;23184;51.902;12.836;2023-05-10T04:17:07;10.00;99.90
37300;DHT22;23184;51.902;12.836;2023-05-10T04:19:33;10.00;99.90
37300;DHT22;23184;51.902;12.836;2023-05-10T04:21:58;10.00;99.90
37300;DHT22;23184;51.902;12.836;2023-05-10T04:24:24;10.00;99.90
37300;DHT22;23184;51.902;12.836;2023-05-10T04:26:50;10.00;99.90
37300;DHT22;23184;51.902;12.836;2023-05-10T04:29:16;10.10;99.90
37300;DHT22;23184;51.902;12.836;2023-05-10T04:31:41;10.10;99.90
37300;DHT22;23184;51.902;12.836;2023-05-10T04:34:07;10.10;99.90
37300;DHT22;23184;51.902;12.836;2023-05-10T04:36:32;10.10;99.90
37300;DHT22;23184;51.902;12.836;2023-05-10T04:39:00;10.10;99.90
37300;DHT22;23184;51.902;12.836;2023-05-10T04:41:26;10.20;99.90
37300;DHT22;23184;51.902;12.836;2023-05-10T04:43:51;10.20;99.90
37300;DHT22;23184;51.902;12.836;2023-05-10T04:46:17;10.20;99.90
37300;DHT22;23184;51.902;12.836;2023-05-10T04:48:42;10.30;99.90
37300;DHT22;23184;51.902;12.836;2023-05-10T04:51:08;10.30;99.90
37300;DHT22;23184;51.902;12.836;2023-05-10T04:53:33;10.30;99.90
37300;DHT22;23184;51.902;12.836;2023-05-10T04:55:59;10.40;99.90
37300;DHT22;23184;51.902;12.836;2023-05-10T04:58:24;10.50;99.90
37300;DHT22;23184;51.902;12.836;2023-05-10T05:00:50;10.60;99.90
37300;DHT22;23184;51.902;12.836;2023-05-10T05:03:16;10.60;99.90
37300;DHT22;23184;51.902;12.836;2023-05-10T05:05:41;10.70;99.90
37300;DHT22;23184;51.902;12.836;2023-05-10T05:08:07;10.70;99.90
37300;DHT22;23184;51.902;12.836;2023-05-10T05:10:32;10.80;99.90
37300;DHT22;23184;51.902;12.836;2023-05-10T05:12:58;10.80;99.90
37300;DHT22;23184;51.902;12.836;2023-05-10T05:15:23;11.00;99.90
37300;DHT22;23184;51.902;12.836;2023-05-10T05:17:49;11.00;99.90
37300;DHT22;23184;51.902;12.836;2023-05-10T05:20:14;11.10;99.90
37300;DHT22;23184;51.902;12.836;2023-05-10T05:22:40;11.10;99.90
37300;DHT22;23184;51.902;12.836;2023-05-10T05:25:05;11.20;99.90
37300;DHT22;23184;51.902;12.836;2023-05-10T05:27:32;11.20;99.90
37300;DHT22;23184;51.902;12.836;2023-05-10T05:29:58;11.30;99.90
37300;DHT22;23184;51.902;12.836;2023-05-10T05:32:24;11.40;99.90
37300;DHT22;23184;51.902;12.836;2023-05-10T05:34:50;11.50;99.90
37300;DHT22;23184;51.902;12.836;2023-05-10T05:37:16;11.60;99.90
37300;DHT22;23184;51.902;12.836;2023-05-10T05:39:42;11.70;99.90
37300;DHT22;23184;51.902;12.836;2023-05-10T05:42:09;11.70;99.90
37300;DHT22;23184;51.902;12.836;2023-05-10T05:44:34;11.80;99.90
37300;DHT22;23184;51.902;12.836;2023-05-10T05:47:00;11.90;99.90
37300;DHT22;23184;51.902;12.836;2023-05-10T05:49:26;12.00;99.90
37300;DHT22;23184;51.902;12.836;2023-05-10T05:51:51;12.10;99.90
37300;DHT22;23184;51.902;12.836;2023-05-10T05:54:16;12.10;99.90
37300;DHT22;23184;51.902;12.836;2023-05-10T05:56:42;12.20;99.90
37300;DHT22;23184;51.902;12.836;2023-05-10T05:59:07;12.30;99.90
37300;DHT22;23184;51.902;12.836;2023-05-10T06:01:33;12.40;99.90
37300;DHT22;23184;51.902;12.836;2023-05-10T06:03:59;12.40;99.90
37300;DHT22;23184;51.902;12.836;2023-05-10T06:06:24;12.40;99.90
37300;DHT22;23184;51.902;12.836;2023-05-10T06:08:50;12.50;99.90
37300;DHT22;23184;51.902;12.836;2023-05-10T06:11:15;12.60;99.90
37300;DHT22;23184;51.902;12.836;2023-05-10T06:13:40;12.70;99.90
37300;DHT22;23184;51.902;12.836;2023-05-10T06:16:07;12.90;99.90
37300;DHT22;23184;51.902;12.836;2023-05-10T06:18:33;13.00;99.90
37300;DHT22;23184;51.902;12.836;2023-05-10T06:20:58;13.10;99.90
37300;DHT22;23184;51.902;12.836;2023-05-10T06:23:24;13.30;99.90
37300;DHT22;23184;51.902;12.836;2023-05-10T06:25:51;13.40;99.90
37300;DHT22;23184;51.902;12.836;2023-05-10T06:28:16;13.50;99.90
37300;DHT22;23184;51.902;12.836;2023-05-10T06:30:42;13.70;99.90
37300;DHT22;23184;51.902;12.836;2023-05-10T06:33:07;13.90;99.90
37300;DHT22;23184;51.902;12.836;2023-05-10T06:35:33;14.00;99.90
37300;DHT22;23184;51.902;12.836;2023-05-10T06:37:59;14.10;99.90
37300;DHT22;23184;51.902;12.836;2023-05-10T06:40:24;14.30;99.90
37300;DHT22;23184;51.902;12.836;2023-05-10T06:42:50;14.50;99.90
37300;DHT22;23184;51.902;12.836;2023-05-10T06:45:16;14.60;99.90
37300;DHT22;23184;51.902;12.836;2023-05-10T06:47:41;14.90;99.90
37300;DHT22;23184;51.902;12.836;2023-05-10T06:50:08;14.90;99.90
37300;DHT22;23184;51.902;12.836;2023-05-10T06:52:34;14.90;99.90
37300;DHT22;23184;51.902;12.836;2023-05-10T06:55:00;14.90;99.90
37300;DHT22;23184;51.902;12.836;2023-05-10T06:57:25;15.20;99.90
37300;DHT22;23184;51.902;12.836;2023-05-10T06:59:51;15.40;99.90
37300;DHT22;23184;51.902;12.836;2023-05-10T07:02:17;15.60;99.90
37300;DHT22;23184;51.902;12.836;2023-05-10T07:04:43;15.50;99.90
37300;DHT22;23184;51.902;12.836;2023-05-10T07:07:08;15.60;99.90
37300;DHT22;23184;51.902;12.836;2023-05-10T07:09:34;15.60;99.90
37300;DHT22;23184;51.902;12.836;2023-05-10T07:11:59;15.80;99.90
37300;DHT22;23184;51.902;12.836;2023-05-10T07:14:25;16.10;99.90
37300;DHT22;23184;51.902;12.836;2023-05-10T07:16:50;16.30;99.90
37300;DHT22;23184;51.902;12.836;2023-05-10T07:19:16;16.60;99.90
37300;DHT22;23184;51.902;12.836;2023-05-10T07:21:41;16.70;99.90
37300;DHT22;23184;51.902;12.836;2023-05-10T07:24:08;16.70;99.90
37300;DHT22;23184;51.902;12.836;2023-05-10T07:26:34;16.80;99.90
37300;DHT22;23184;51.902;12.836;2023-05-10T07:28:59;17.00;99.90
37300;DHT22;23184;51.902;12.836;2023-05-10T07:31:25;17.10;99.90
37300;DHT22;23184;51.902;12.836;2023-05-10T07:33:50;17.40;99.90
37300;DHT22;23184;51.902;12.836;2023-05-10T07:36:16;17.50;99.90
37300;DHT22;23184;51.902;12.836;2023-05-10T07:38:41;17.80;99.90
37300;DHT22;23184;51.902;12.836;2023-05-10T07:41:07;17.90;99.90
37300;DHT22;23184;51.902;12.836;2023-05-10T07:43:32;18.20;99.90
37300;DHT22;23184;51.902;12.836;2023-05-10T07:45:58;18.50;99.90
37300;DHT22;23184;51.902;12.836;2023-05-10T07:48:25;18.20;97.70
37300;DHT22;23184;51.902;12.836;2023-05-10T07:50:51;18.30;99.10
37300;DHT22;23184;51.902;12.836;2023-05-10T07:53:16;18.40;97.20
37300;DHT22;23184;51.902;12.836;2023-05-10T07:55:42;18.60;95.70
37300;DHT22;23184;51.902;12.836;2023-05-10T07:58:08;18.50;95.60
37300;DHT22;23184;51.902;12.836;2023-05-10T08:00:33;18.60;94.90
37300;DHT22;23184;51.902;12.836;2023-05-10T08:02:59;18.50;94.20
37300;DHT22;23184;51.902;12.836;2023-05-10T08:05:24;19.20;96.60
37300;DHT22;23184;51.902;12.836;2023-05-10T08:07:50;19.70;94.90
37300;DHT22;23184;51.902;12.836;2023-05-10T08:10:15;19.50;93.20
37300;DHT22;23184;51.902;12.836;2023-05-10T08:12:42;19.40;91.50
37300;DHT22;23184;51.902;12.836;2023-05-10T08:15:08;19.70;91.10
37300;DHT22;23184;51.902;12.836;2023-05-10T08:17:34;19.40;90.30
37300;DHT22;23184;51.902;12.836;2023-05-10T08:19:59;19.30;90.80
37300;DHT22;23184;51.902;12.836;2023-05-10T08:22:25;19.30;90.40
37300;DHT22;23184;51.902;12.836;2023-05-10T08:24:50;19.60;91.60
37300;DHT22;23184;51.902;12.836;2023-05-10T08:27:16;20.10;93.20
37300;DHT22;23184;51.902;12.836;2023-05-10T08:29:41;19.60;90.50
37300;DHT22;23184;51.902;12.836;2023-05-10T08:32:07;19.40;90.70
37300;DHT22;23184;51.902;12.836;2023-05-10T08:34:32;19.20;93.70
37300;DHT22;23184;51.902;12.836;2023-05-10T08:36:58;19.50;91.60
37300;DHT22;23184;51.902;12.836;2023-05-10T08:39:23;19.60;90.90
37300;DHT22;23184;51.902;12.836;2023-05-10T08:41:51;20.10;91.00
37300;DHT22;23184;51.902;12.836;2023-05-10T08:44:17;19.50;90.90
37300;DHT22;23184;51.902;12.836;2023-05-10T08:46:46;19.30;95.00
37300;DHT22;23184;51.902;12.836;2023-05-10T08:49:13;19.90;92.70
37300;DHT22;23184;51.902;12.836;2023-05-10T08:51:44;19.60;91.50
37300;DHT22;23184;51.902;12.836;2023-05-10T08:54:12;20.20;91.40
37300;DHT22;23184;51.902;12.836;2023-05-10T08:56:38;20.10;92.30
37300;DHT22;23184;51.902;12.836;2023-05-10T08:59:04;19.70;92.20
37300;DHT22;23184;51.902;12.836;2023-05-10T09:01:31;20.10;90.80
37300;DHT22;23184;51.902;12.836;2023-05-10T09:03:57;20.10;92.50
37300;DHT22;23184;51.902;12.836;2023-05-10T09:06:23;20.60;90.30
37300;DHT22;23184;51.902;12.836;2023-05-10T09:08:49;20.70;89.80
37300;DHT22;23184;51.902;12.836;2023-05-10T09:11:15;21.50;90.20
37300;DHT22;23184;51.902;12.836;2023-05-10T09:13:41;21.20;88.10
37300;DHT22;23184;51.902;12.836;2023-05-10T09:16:07;20.00;94.50
37300;DHT22;23184;51.902;12.836;2023-05-10T09:18:33;20.90;93.20
37300;DHT22;23184;51.902;12.836;2023-05-10T09:20:58;21.50;88.10
37300;DHT22;23184;51.902;12.836;2023-05-10T09:23:24;21.80;87.80
37300;DHT22;23184;51.902;12.836;2023-05-10T09:26:06;21.60;87.40
37300;DHT22;23184;51.902;12.836;2023-05-10T09:28:50;21.80;84.50
37300;DHT22;23184;51.902;12.836;2023-05-10T09:31:16;21.80;87.30
37300;DHT22;23184;51.902;12.836;2023-05-10T09:33:45;20.40;92.40
37300;DHT22;23184;51.902;12.836;2023-05-10T09:36:11;21.00;90.50
37300;DHT22;23184;51.902;12.836;2023-05-10T09:41:21;21.50;86.40
37300;DHT22;23184;51.902;12.836;2023-05-10T09:43:47;21.70;87.70
37300;DHT22;23184;51.902;12.836;2023-05-10T09:46:13;21.90;86.50
37300;DHT22;23184;51.902;12.836;2023-05-10T09:48:43;23.30;90.90
37300;DHT22;23184;51.902;12.836;2023-05-10T09:53:35;21.40;90.20
37300;DHT22;23184;51.902;12.836;2023-05-10T09:56:01;21.40;88.40
37300;DHT22;23184;51.902;12.836;2023-05-10T09:58:26;21.50;90.00
37300;DHT22;23184;51.902;12.836;2023-05-10T10:00:52;22.50;85.70
37300;DHT22;23184;51.902;12.836;2023-05-10T10:03:20;23.00;82.30
37300;DHT22;23184;51.902;12.836;2023-05-10T10:05:47;23.40;79.30
37300;DHT22;23184;51.902;12.836;2023-05-10T10:08:14;23.80;81.40
37300;DHT22;23184;51.902;12.836;2023-05-10T10:10:40;23.20;80.90
37300;DHT22;23184;51.902;12.836;2023-05-10T10:13:07;22.70;87.60
37300;DHT22;23184;51.902;12.836;2023-05-10T10:15:33;23.20;81.50
37300;DHT22;23184;51.902;12.836;2023-05-10T10:17:59;23.80;76.80
37300;DHT22;23184;51.902;12.836;2023-05-10T10:20:26;24.40;79.60
37300;DHT22;23184;51.902;12.836;2023-05-10T10:22:52;23.70;78.30
37300;DHT22;23184;51.902;12.836;2023-05-10T10:25:20;24.00;77.50
37300;DHT22;23184;51.902;12.836;2023-05-10T10:30:42;25.20;74.80
37300;DHT22;23184;51.902;12.836;2023-05-10T10:36:00;24.40;75.70
37300;DHT22;23184;51.902;12.836;2023-05-10T10:38:35;25.00;79.90
37300;DHT22;23184;51.902;12.836;2023-05-10T10:41:10;24.50;80.80
37300;DHT22;23184;51.902;12.836;2023-05-10T10:43:37;24.80;77.90
37300;DHT22;23184;51.902;12.836;2023-05-10T10:48:48;25.20;72.30
37300;DHT22;23184;51.902;12.836;2023-05-10T10:51:14;25.20;73.60
37300;DHT22;23184;51.902;12.836;2023-05-10T10:53:41;24.10;76.50
37300;DHT22;23184;51.902;12.836;2023-05-10T10:56:08;23.60;79.10
37300;DHT22;23184;51.902;12.836;2023-05-10T10:58:35;22.90;78.20
37300;DHT22;23184;51.902;12.836;2023-05-10T11:01:15;23.00;80.50
37300;DHT22;23184;51.902;12.836;2023-05-10T11:03:54;23.10;79.00
37300;DHT22;23184;51.902;12.836;2023-05-10T11:06:31;21.80;82.70
37300;DHT22;23184;51.902;12.836;2023-05-10T11:09:08;23.20;80.40
37300;DHT22;23184;51.902;12.836;2023-05-10T11:11:49;23.80;84.10
37300;DHT22;23184;51.902;12.836;2023-05-10T11:14:20;23.50;80.50
37300;DHT22;23184;51.902;12.836;2023-05-10T11:16:46;24.10;81.70
37300;DHT22;23184;51.902;12.836;2023-05-10T11:19:13;24.60;75.80
37300;DHT22;23184;51.902;12.836;2023-05-10T11:21:49;22.80;82.00
37300;DHT22;23184;51.902;12.836;2023-05-10T11:24:16;21.80;85.50
37300;DHT22;23184;51.902;12.836;2023-05-10T11:26:43;22.10;85.50
37300;DHT22;23184;51.902;12.836;2023-05-10T11:29:08;23.40;84.40
37300;DHT22;23184;51.902;12.836;2023-05-10T11:31:34;23.80;81.40
37300;DHT22;23184;51.902;12.836;2023-05-10T11:34:01;23.60;77.90
37300;DHT22;23184;51.902;12.836;2023-05-10T11:36:33;23.50;80.30
37300;DHT22;23184;51.902;12.836;2023-05-10T11:38:59;24.20;80.10
37300;DHT22;23184;51.902;12.836;2023-05-10T11:41:26;23.50;80.80
37300;DHT22;23184;51.902;12.836;2023-05-10T11:43:55;22.30;84.00
37300;DHT22;23184;51.902;12.836;2023-05-10T11:46:23;22.30;87.80
37300;DHT22;23184;51.902;12.836;2023-05-10T11:48:50;23.20;87.90
37300;DHT22;23184;51.902;12.836;2023-05-10T11:51:20;22.60;89.80
37300;DHT22;23184;51.902;12.836;2023-05-10T11:53:46;22.80;87.70
37300;DHT22;23184;51.902;12.836;2023-05-10T11:56:11;22.30;87.10
37300;DHT22;23184;51.902;12.836;2023-05-10T11:58:39;21.30;91.70
37300;DHT22;23184;51.902;12.836;2023-05-10T12:01:06;21.10;97.50
37300;DHT22;23184;51.902;12.836;2023-05-10T12:03:33;21.00;99.90
37300;DHT22;23184;51.902;12.836;2023-05-10T12:05:59;21.30;99.90
37300;DHT22;23184;51.902;12.836;2023-05-10T12:08:27;21.80;95.60
37300;DHT22;23184;51.902;12.836;2023-05-10T12:10:54;21.80;97.20
37300;DHT22;23184;51.902;12.836;2023-05-10T12:13:29;22.10;93.10
37300;DHT22;23184;51.902;12.836;2023-05-10T12:15:57;22.40;93.70
37300;DHT22;23184;51.902;12.836;2023-05-10T12:18:23;22.00;93.30
37300;DHT22;23184;51.902;12.836;2023-05-10T12:20:52;22.80;91.20
37300;DHT22;23184;51.902;12.836;2023-05-10T12:23:19;23.30;90.90
37300;DHT22;23184;51.902;12.836;2023-05-10T12:25:45;21.80;92.20
37300;DHT22;23184;51.902;12.836;2023-05-10T12:28:11;21.60;93.10
37300;DHT22;23184;51.902;12.836;2023-05-10T12:30:38;21.70;99.90
37300;DHT22;23184;51.902;12.836;2023-05-10T12:35:32;20.10;99.90
37300;DHT22;23184;51.902;12.836;2023-05-10T12:37:58;19.80;99.90
37300;DHT22;23184;51.902;12.836;2023-05-10T12:40:24;19.80;99.90
37300;DHT22;23184;51.902;12.836;2023-05-10T12:42:49;19.60;99.90
37300;DHT22;23184;51.902;12.836;2023-05-10T12:45:17;19.40;99.90
37300;DHT22;23184;51.902;12.836;2023-05-10T12:47:43;19.40;99.90
37300;DHT22;23184;51.902;12.836;2023-05-10T12:50:08;19.20;99.90
37300;DHT22;23184;51.902;12.836;2023-05-10T12:52:34;19.10;99.90
37300;DHT22;23184;51.902;12.836;2023-05-10T12:55:00;19.00;99.90
37300;DHT22;23184;51.902;12.836;2023-05-10T12:57:26;19.20;99.90
37300;DHT22;23184;51.902;12.836;2023-05-10T12:59:52;18.90;99.90
37300;DHT22;23184;51.902;12.836;2023-05-10T13:02:17;18.70;99.90
37300;DHT22;23184;51.902;12.836;2023-05-10T13:04:44;18.90;99.90
37300;DHT22;23184;51.902;12.836;2023-05-10T13:07:10;19.00;99.90
37300;DHT22;23184;51.902;12.836;2023-05-10T13:09:35;19.10;99.90
37300;DHT22;23184;51.902;12.836;2023-05-10T13:12:01;19.10;99.90
37300;DHT22;23184;51.902;12.836;2023-05-10T13:14:27;19.00;99.90
37300;DHT22;23184;51.902;12.836;2023-05-10T13:16:53;19.00;99.90
37300;DHT22;23184;51.902;12.836;2023-05-10T13:19:19;18.90;99.90
37300;DHT22;23184;51.902;12.836;2023-05-10T13:21:44;19.00;99.90
37300;DHT22;23184;51.902;12.836;2023-05-10T13:24:11;19.00;99.90
37300;DHT22;23184;51.902;12.836;2023-05-10T13:26:39;18.90;99.90
37300;DHT22;23184;51.902;12.836;2023-05-10T13:29:05;18.90;99.90
37300;DHT22;23184;51.902;12.836;2023-05-10T13:31:31;18.80;99.90
37300;DHT22;23184;51.902;12.836;2023-05-10T13:33:56;18.70;99.90
37300;DHT22;23184;51.902;12.836;2023-05-10T13:36:22;18.50;99.90
37300;DHT22;23184;51.902;12.836;2023-05-10T13:38:48;18.40;99.90
37300;DHT22;23184;51.902;12.836;2023-05-10T13:41:13;18.30;99.90
37300;DHT22;23184;51.902;12.836;2023-05-10T13:43:39;18.20;99.90
37300;DHT22;23184;51.902;12.836;2023-05-10T13:46:04;18.00;99.90
37300;DHT22;23184;51.902;12.836;2023-05-10T13:48:30;18.00;99.90
37300;DHT22;23184;51.902;12.836;2023-05-10T13:50:55;17.80;99.90
37300;DHT22;23184;51.902;12.836;2023-05-10T13:53:21;18.20;99.90
37300;DHT22;23184;51.902;12.836;2023-05-10T13:55:47;18.40;99.90
37300;DHT22;23184;51.902;12.836;2023-05-10T13:58:12;18.50;99.90
37300;DHT22;23184;51.902;12.836;2023-05-10T14:00:38;18.70;99.90
37300;DHT22;23184;51.902;12.836;2023-05-10T14:03:03;18.90;99.90
37300;DHT22;23184;51.902;12.836;2023-05-10T14:05:30;18.80;99.90
37300;DHT22;23184;51.902;12.836;2023-05-10T14:07:56;18.80;99.90
37300;DHT22;23184;51.902;12.836;2023-05-10T14:10:21;18.70;99.90
37300;DHT22;23184;51.902;12.836;2023-05-10T14:12:47;18.40;99.90
37300;DHT22;23184;51.902;12.836;2023-05-10T14:15:13;18.30;99.90
37300;DHT22;23184;51.902;12.836;2023-05-10T14:17:38;18.40;99.90
37300;DHT22;23184;51.902;12.836;2023-05-10T14:20:04;18.00;99.90
37300;DHT22;23184;51.902;12.836;2023-05-10T14:22:30;18.10;99.90
37300;DHT22;23184;51.902;12.836;2023-05-10T14:24:55;18.10;99.90
37300;DHT22;23184;51.902;12.836;2023-05-10T14:27:21;17.90;99.90
37300;DHT22;23184;51.902;12.836;2023-05-10T14:29:47;18.00;99.90
37300;DHT22;23184;51.902;12.836;2023-05-10T14:32:12;18.00;99.90
37300;DHT22;23184;51.902;12.836;2023-05-10T14:34:38;17.90;99.90
37300;DHT22;23184;51.902;12.836;2023-05-10T14:37:03;17.70;99.90
37300;DHT22;23184;51.902;12.836;2023-05-10T14:39:29;17.60;99.90
37300;DHT22;23184;51.902;12.836;2023-05-10T14:41:55;17.80;99.90
37300;DHT22;23184;51.902;12.836;2023-05-10T14:44:20;17.60;99.90
37300;DHT22;23184;51.902;12.836;2023-05-10T14:46:46;17.70;99.90
37300;DHT22;23184;51.902;12.836;2023-05-10T14:49:12;17.60;99.90
37300;DHT22;23184;51.902;12.836;2023-05-10T14:51:37;17.70;99.90
37300;DHT22;23184;51.902;12.836;2023-05-10T14:54:03;17.90;99.90
37300;DHT22;23184;51.902;12.836;2023-05-10T14:56:29;18.00;99.90
37300;DHT22;23184;51.902;12.836;2023-05-10T14:58:54;17.80;99.90
37300;DHT22;23184;51.902;12.836;2023-05-10T15:01:20;17.70;99.90
37300;DHT22;23184;51.902;12.836;2023-05-10T15:03:45;17.60;99.90
37300;DHT22;23184;51.902;12.836;2023-05-10T15:06:14;17.70;99.90
37300;DHT22;23184;51.902;12.836;2023-05-10T15:08:40;17.80;99.90
37300;DHT22;23184;51.902;12.836;2023-05-10T15:11:05;17.90;99.90
37300;DHT22;23184;51.902;12.836;2023-05-10T15:13:31;17.90;99.90
37300;DHT22;23184;51.902;12.836;2023-05-10T15:15:56;18.10;99.90
37300;DHT22;23184;51.902;12.836;2023-05-10T15:18:22;17.80;99.90
37300;DHT22;23184;51.902;12.836;2023-05-10T15:20:47;17.80;99.90
37300;DHT22;23184;51.902;12.836;2023-05-10T15:23:13;18.10;99.90
37300;DHT22;23184;51.902;12.836;2023-05-10T15:25:38;18.20;99.90
37300;DHT22;23184;51.902;12.836;2023-05-10T15:28:04;18.50;99.90
37300;DHT22;23184;51.902;12.836;2023-05-10T15:30:30;18.40;99.90
37300;DHT22;23184;51.902;12.836;2023-05-10T15:32:55;18.20;99.90
37300;DHT22;23184;51.902;12.836;2023-05-10T15:35:21;18.20;99.90
37300;DHT22;23184;51.902;12.836;2023-05-10T15:37:48;18.20;99.90
37300;DHT22;23184;51.902;12.836;2023-05-10T15:40:14;18.20;99.90